createdAt,value
2018-09-11T00:03:05.179Z,99.99
2018-09-11T00:08:02.792Z,99.99
2018-09-11T00:12:59.520Z,99.99
2018-09-11T00:17:55.404Z,99.99
2018-09-11T00:22:51.105Z,99.99
2018-09-11T00:27:47.682Z,99.99
2018-09-11T00:32:43.386Z,99.99
2018-09-11T00:37:39.393Z,99.99
2018-09-11T00:42:35.315Z,99.99
2018-09-11T00:47:32.275Z,99.99
2018-09-11T00:52:27.785Z,99.99
2018-09-11T00:57:24.558Z,99.99
2018-09-11T01:02:21.163Z,99.99
2018-09-11T01:07:16.435Z,99.99
2018-09-11T01:12:12.756Z,99.99
2018-09-11T01:17:09.746Z,99.99
2018-09-11T01:22:05.210Z,99.99
2018-09-11T01:27:01.016Z,99.99
2018-09-11T01:31:57.217Z,99.99
2018-09-11T01:36:54.062Z,99.99
2018-09-11T01:41:49.581Z,99.99
2018-09-11T01:46:47.068Z,99.99
2018-09-11T01:51:42.438Z,99.99
2018-09-11T01:56:38.196Z,99.99
2018-09-11T02:01:34.355Z,99.99
2018-09-11T02:06:30.428Z,99.99
2018-09-11T02:11:26.300Z,99.99
2018-09-11T02:16:21.928Z,99.99
2018-09-11T02:21:18.308Z,99.99
2018-09-11T02:26:14.344Z,99.99
2018-09-11T02:31:10.263Z,99.99
2018-09-11T02:36:06.171Z,99.99
2018-09-11T02:41:01.892Z,99.99
2018-09-11T02:45:57.826Z,99.99
2018-09-11T02:50:53.757Z,99.99
2018-09-11T02:55:49.781Z,99.99
2018-09-11T03:00:45.721Z,99.99
2018-09-11T03:05:41.496Z,99.99
2018-09-11T03:10:37.271Z,99.99
2018-09-11T03:15:32.999Z,99.99
2018-09-11T03:20:30.007Z,99.99
2018-09-11T03:25:25.516Z,99.99
2018-09-11T03:30:21.502Z,99.99
2018-09-11T03:35:17.109Z,99.99
2018-09-11T03:40:12.910Z,99.99
2018-09-11T03:45:08.616Z,99.99
2018-09-11T03:50:04.685Z,99.99
2018-09-11T03:55:01.427Z,99.99
2018-09-11T03:59:58.285Z,99.99
2018-09-11T04:04:53.927Z,99.99
2018-09-11T04:09:50.552Z,99.99
2018-09-11T04:14:46.190Z,99.99
2018-09-11T04:19:42.154Z,99.99
2018-09-11T04:24:38.134Z,99.99
2018-09-11T04:29:34.311Z,99.99
2018-09-11T04:34:29.911Z,99.99
2018-09-11T04:39:25.605Z,99.99
2018-09-11T04:44:21.487Z,99.99
2018-09-11T04:49:17.416Z,99.99
2018-09-11T04:54:13.381Z,99.99
2018-09-11T04:59:09.057Z,99.99
2018-09-11T05:04:05.019Z,99.99
2018-09-11T05:09:00.844Z,99.99
2018-09-11T05:13:56.703Z,99.99
2018-09-11T05:18:52.584Z,99.99
2018-09-11T05:23:48.918Z,99.99
2018-09-11T05:28:44.594Z,99.99
2018-09-11T05:33:40.266Z,99.99
2018-09-11T05:38:36.587Z,99.99
2018-09-11T05:43:32.501Z,99.99
2018-09-11T05:48:28.589Z,99.99
2018-09-11T05:53:24.668Z,99.99
2018-09-11T05:58:20.598Z,99.99
2018-09-11T06:03:16.613Z,99.99
2018-09-11T06:08:12.635Z,99.99
2018-09-11T06:13:08.658Z,99.99
2018-09-11T06:18:04.916Z,99.99
2018-09-11T06:23:02.065Z,99.99
2018-09-11T06:27:57.658Z,99.99
2018-09-11T06:32:53.481Z,99.99
2018-09-11T06:37:49.655Z,99.99
2018-09-11T06:42:46.591Z,99.99
2018-09-11T06:47:42.452Z,99.99
2018-09-11T06:52:38.786Z,99.99
2018-09-11T06:57:35.677Z,99.99
2018-09-11T07:02:31.211Z,99.99
2018-09-11T07:07:27.236Z,99.99
2018-09-11T07:12:24.602Z,99.99
2018-09-11T07:17:21.751Z,99.99
2018-09-11T07:22:18.574Z,99.99
2018-09-11T07:27:14.378Z,99.99
2018-09-11T07:32:10.510Z,99.99
2018-09-11T07:37:06.512Z,99.99
2018-09-11T07:42:02.547Z,99.99
2018-09-11T07:46:58.577Z,99.99
2018-09-11T07:51:54.500Z,99.99
2018-09-11T07:56:50.585Z,99.99
2018-09-11T08:01:47.160Z,99.99
2018-09-11T08:06:43.370Z,99.99
2018-09-11T08:11:39.304Z,99.99
2018-09-11T08:16:35.453Z,99.99
2018-09-11T08:21:31.412Z,99.99
2018-09-11T08:26:28.073Z,99.99
2018-09-11T08:31:24.744Z,99.99
2018-09-11T08:36:20.711Z,99.99
2018-09-11T08:41:17.696Z,99.99
2018-09-11T08:46:14.491Z,99.99
2018-09-11T08:51:10.040Z,99.99
2018-09-11T08:56:07.069Z,99.99
2018-09-11T09:01:03.729Z,99.99
2018-09-11T09:06:00.432Z,99.99
2018-09-11T09:10:56.059Z,99.99
2018-09-11T09:15:52.122Z,99.99
2018-09-11T09:20:47.967Z,99.99
2018-09-11T09:25:44.037Z,99.99
2018-09-11T09:30:40.802Z,99.99
2018-09-11T09:35:36.963Z,99.99
2018-09-11T09:40:33.466Z,99.99
2018-09-11T09:45:29.593Z,99.99
2018-09-11T09:50:26.726Z,99.93
2018-09-11T09:55:22.209Z,97.76
2018-09-11T10:00:19.244Z,97.52
2018-09-11T10:05:15.015Z,96.03
2018-09-11T10:10:12.520Z,93.86
2018-09-11T10:15:08.251Z,93.19
2018-09-11T10:20:04.597Z,91.83
2018-09-11T10:25:02.708Z,89.86
2018-09-11T10:29:58.733Z,88.65
2018-09-11T10:34:55.521Z,86.86
2018-09-11T10:39:51.260Z,86.66
2018-09-11T10:44:48.489Z,85.80
2018-09-11T10:49:44.339Z,83.81
2018-09-11T10:54:40.736Z,81.98
2018-09-11T10:59:37.817Z,80.76
2018-09-11T11:04:34.574Z,80.18
2018-09-11T11:09:30.994Z,80.22
2018-09-11T11:14:28.010Z,78.29
2018-09-11T11:19:24.194Z,78.38
2018-09-11T11:24:20.635Z,77.36
2018-09-11T11:29:16.985Z,75.62
2018-09-11T11:34:13.106Z,74.98
2018-09-11T11:39:09.364Z,75.37
2018-09-11T11:44:05.513Z,75.02
2018-09-11T11:49:01.502Z,74.05
2018-09-11T11:53:57.226Z,75.04
2018-09-11T11:58:53.091Z,75.71
2018-09-11T12:03:47.541Z,75.33
2018-09-11T12:08:43.214Z,75.23
2018-09-11T12:13:39.373Z,74.21
2018-09-11T12:18:35.719Z,74.01
2018-09-11T12:23:32.846Z,71.53
2018-09-11T12:28:28.560Z,72.36
2018-09-11T12:33:23.800Z,71.36
2018-09-11T12:38:19.719Z,72.62
2018-09-11T12:43:15.625Z,71.20
2018-09-11T12:48:12.897Z,70.92
2018-09-11T12:53:08.591Z,69.95
2018-09-11T12:58:04.308Z,70.62
2018-09-11T13:03:00.212Z,69.37
2018-09-11T13:07:57.506Z,69.66
2018-09-11T13:12:53.008Z,69.75
2018-09-11T13:17:49.077Z,69.95
2018-09-11T13:22:45.072Z,68.79
2018-09-11T13:27:41.161Z,69.40
2018-09-11T13:32:37.118Z,68.05
2018-09-11T13:37:33.053Z,68.63
2018-09-11T13:42:30.024Z,68.73
2018-09-11T13:47:25.799Z,69.21
2018-09-11T13:52:21.897Z,69.21
2018-09-11T13:57:18.392Z,68.73
2018-09-11T14:02:14.554Z,68.91
2018-09-11T14:07:10.468Z,68.91
2018-09-11T14:12:07.573Z,68.24
2018-09-11T14:17:03.871Z,68.85
2018-09-11T14:21:59.780Z,68.66
2018-09-11T14:26:56.828Z,69.40
2018-09-11T14:31:53.100Z,69.82
2018-09-11T14:36:49.218Z,69.82
2018-09-11T14:41:45.277Z,69.92
2018-09-11T14:46:41.399Z,69.92
2018-09-11T14:51:37.314Z,69.43
2018-09-11T14:56:34.355Z,70.01
2018-09-11T15:01:30.119Z,69.53
2018-09-11T15:06:26.178Z,68.95
2018-09-11T15:11:22.159Z,69.24
2018-09-11T15:16:19.189Z,68.95
2018-09-11T15:21:15.229Z,68.95
2018-09-11T15:26:11.197Z,68.85
2018-09-11T15:31:07.229Z,68.85
2018-09-11T15:36:04.102Z,68.85
2018-09-11T15:41:00.941Z,68.76
2018-09-11T15:45:57.850Z,68.85
2018-09-11T15:50:53.498Z,68.40
2018-09-11T15:55:49.773Z,68.30
2018-09-11T16:00:47.220Z,67.92
2018-09-11T16:05:43.053Z,67.82
2018-09-11T16:10:38.894Z,68.12
2018-09-11T16:15:34.785Z,67.30
2018-09-11T16:20:31.805Z,68.08
2018-09-11T16:25:27.396Z,67.69
2018-09-11T16:30:23.410Z,67.50
2018-09-11T16:35:19.211Z,67.40
2018-09-11T16:40:15.101Z,67.79
2018-09-11T16:45:11.101Z,67.50
2018-09-11T16:50:06.954Z,67.18
2018-09-11T16:55:03.859Z,67.46
2018-09-11T16:59:59.927Z,67.56
2018-09-11T17:04:56.742Z,68.91
2018-09-11T17:09:52.397Z,69.01
2018-09-11T17:14:49.275Z,68.79
2018-09-11T17:19:44.912Z,69.66
2018-09-11T17:24:41.854Z,69.85
2018-09-11T17:29:37.889Z,70.14
2018-09-11T17:34:33.672Z,70.98
2018-09-11T17:39:29.714Z,71.46
2018-09-11T17:44:25.617Z,71.17
2018-09-11T17:49:22.460Z,72.04
2018-09-11T17:54:18.045Z,71.75
2018-09-11T17:59:14.166Z,71.81
2018-09-11T18:04:10.124Z,72.20
2018-09-11T18:09:06.129Z,73.26
2018-09-11T18:14:02.232Z,73.55
2018-09-11T18:18:57.944Z,73.74
2018-09-11T18:23:54.246Z,74.68
2018-09-11T18:28:50.145Z,74.48
2018-09-11T18:33:46.124Z,75.06
2018-09-11T18:38:41.822Z,75.26
2018-09-11T18:43:38.237Z,75.16
2018-09-11T18:48:34.211Z,75.16
2018-09-11T18:53:29.917Z,75.79
2018-09-11T18:58:27.326Z,76.28
2018-09-11T19:03:22.911Z,76.51
2018-09-11T19:08:18.852Z,76.95
2018-09-11T19:13:15.411Z,77.73
2018-09-11T19:18:11.206Z,77.83
2018-09-11T19:23:07.225Z,78.31
2018-09-11T19:28:03.916Z,78.17
2018-09-11T19:32:59.837Z,78.56
2018-09-11T19:37:55.526Z,78.56
2018-09-11T19:42:51.356Z,79.52
2018-09-11T19:47:47.066Z,79.14
2018-09-11T19:52:43.165Z,79.87
2018-09-11T19:57:38.903Z,80.54
2018-09-11T20:02:34.598Z,80.54
2018-09-11T20:07:30.788Z,80.54
2018-09-11T20:12:26.551Z,81.41
2018-09-11T20:17:22.746Z,81.80
2018-09-11T20:22:18.630Z,82.53
2018-09-11T20:27:14.463Z,82.53
2018-09-11T20:32:10.385Z,83.30
2018-09-11T20:37:06.600Z,83.45
2018-09-11T20:42:02.547Z,83.45
2018-09-11T20:46:58.343Z,84.03
2018-09-11T20:51:55.304Z,84.03
2018-09-11T20:56:51.991Z,85.19
2018-09-11T21:01:47.648Z,85.57
2018-09-11T21:06:43.677Z,86.54
2018-09-11T21:11:39.793Z,86.21
2018-09-11T21:16:38.726Z,86.21
2018-09-11T21:21:35.007Z,86.78
2018-09-11T21:26:30.727Z,86.88
2018-09-11T21:31:26.714Z,87.26
2018-09-11T21:36:23.795Z,87.26
2018-09-11T21:41:19.450Z,87.94
2018-09-11T21:46:15.864Z,87.46
2018-09-11T21:51:11.663Z,88.85
2018-09-11T21:56:07.511Z,88.67
2018-09-11T22:01:04.204Z,89.53
2018-09-11T22:05:59.459Z,89.15
2018-09-11T22:10:56.812Z,89.63
2018-09-11T22:15:52.237Z,89.72
2018-09-11T22:20:49.169Z,89.92
2018-09-11T22:25:45.916Z,90.40
2018-09-11T22:30:41.527Z,90.50
2018-09-11T22:35:37.223Z,90.30
2018-09-11T22:40:33.253Z,90.50
2018-09-11T22:45:29.266Z,91.07
2018-09-11T22:50:25.481Z,91.17
2018-09-11T22:55:22.324Z,91.99
2018-09-11T23:00:19.035Z,91.99
2018-09-11T23:05:15.006Z,91.99
2018-09-11T23:10:10.927Z,92.76
2018-09-11T23:15:07.872Z,93.43
2018-09-11T23:20:03.468Z,93.72
2018-09-11T23:24:59.398Z,93.62
2018-09-11T23:29:55.401Z,93.72
2018-09-11T23:34:52.054Z,93.43
2018-09-11T23:39:47.987Z,93.62
2018-09-11T23:44:43.724Z,93.15
2018-09-11T23:49:39.415Z,93.72
2018-09-11T23:54:35.450Z,93.91
2018-09-11T23:59:32.485Z,93.91
